Terminal Aerodrome Forecast
Issued by NWS

Home | Current Version | Previous Version | Text Only | Print | Product List | Glossary On
Versions: 1 2 3 4 5 6 7 8 9 10 11 12 13 14 15 16 17 18 19 20 21 22
000
FTUS41 KOKX 271100
TAFSWF
TAF
KSWF 271132Z 2712/2818 VRB04KT P6SM FEW250
     FM271400 26007KT P6SM SCT040
     FM272300 30007KT P6SM BKN050 BKN130 PROB30 2800/2804 -SHRA
     FM280400 34005KT P6SM SCT040 SCT080
     FM281000 30005KT P6SM SCT040
     FM281400 34010KT P6SM FEW040
      AMD NOT SKED=

USA.gov is the U.S. government's official web portal to all federal, state and local government web resources and services.